Terminal Aerodrome Forecast
Issued by NWS Boston, MA

Home | Current Version | Previous Version | Text Only | Print | Product List | Glossary On
Versions: 1 2 3 4 5 6 7 8 9 10 11 12 13 14 15 16 17 18 19 20 21 22 23 24
000
FTUS41 KBOX 252103 AAA
TAFBDL
TAF AMD
KBDL 252103Z 2521/2624 35005KT 3SM BR OVC004
     FM260300 00000KT 3SM BR BKN015
     FM260700 00000KT 2SM BR BKN150
     FM261300 29004KT P6SM BKN200
     FM262100 29010G20KT P6SM SKC=

USA.gov is the U.S. government's official web portal to all federal, state and local government web resources and services.